Terminal Aerodrome Forecast
Issued by NWS Boston, MA

Home | Current Version | Previous Version | Text Only | Print | Product List | Glossary On
Versions: 1 2 3 4 5 6 7 8 9 10 11 12 13 14 15 16 17 18 19 20 21 22 23 24 25 26 27 28 29 30 31 32 33 34 35 36 37 38 39
000
FTUS41 KBOX 270259 AAA
TAFORH
TAF AMD
KORH 270259Z 2703/2724 29007KT P6SM SKC
     FM271200 33007KT P6SM SKC
     FM272000 04004KT P6SM FEW060
     FM272200 10004KT P6SM FEW060=

USA.gov is the U.S. government's official web portal to all federal, state and local government web resources and services.